Time;durP1;ratioP1;P1;durP2;ratioP2;P2;SDS_P1;SDS_P2;PMS_P1;PMS_P2;Temp;Humidity;BMP_temperature;BMP_pressure;BME280_temperature;BME280_humidity;BME280_pressure;Samples;Min_cycle;Max_cycle;Signal;HPM_P1;HPM_P2
2023/04/25 00:00:29;;;;;;;2.55;1.52;;;;;;;8.17;100.00;100027.78;5061649;28;20468;-67
2023/04/25 00:02:59;;;;;;;1.50;0.80;;;;;;;8.11;100.00;100027.50;5068588;28;20036;-68
2023/04/25 00:05:24;;;;;;;5.47;0.70;;;;;;;8.08;100.00;100031.19;5059836;28;20049;-67
2023/04/25 00:07:50;;;;;;;1.10;0.60;;;;;;;8.08;100.00;100025.19;5048733;28;20032;-68
2023/04/25 00:10:16;;;;;;;4.85;1.50;;;;;;;8.04;100.00;100022.06;5061668;28;20063;-68
2023/04/25 00:12:41;;;;;;;3.03;1.00;;;;;;;8.03;100.00;100024.81;5071600;28;20118;-67
2023/04/25 00:15:07;;;;;;;4.95;1.05;;;;;;;7.95;100.00;100026.31;5072957;28;20063;-67
2023/04/25 00:17:34;;;;;;;5.80;1.58;;;;;;;7.93;100.00;100027.41;5067746;28;20024;-67
2023/04/25 00:20:00;;;;;;;4.75;1.00;;;;;;;7.87;100.00;100021.00;5069140;28;20124;-67
2023/04/25 00:22:26;;;;;;;3.08;0.70;;;;;;;7.78;100.00;100014.03;5067164;28;20078;-67
2023/04/25 00:24:53;;;;;;;2.08;1.00;;;;;;;7.75;100.00;100013.50;5037036;28;20122;-67
2023/04/25 00:27:18;;;;;;;2.67;0.80;;;;;;;7.73;100.00;100011.03;5067440;28;20037;-66
2023/04/25 00:29:44;;;;;;;3.38;1.05;;;;;;;7.77;100.00;100009.00;5071236;28;20077;-67
2023/04/25 00:32:10;;;;;;;3.78;1.35;;;;;;;7.74;100.00;100004.09;5069055;28;20036;-67
2023/04/25 00:34:35;;;;;;;1.75;0.70;;;;;;;7.73;100.00;100010.22;5066374;28;20111;-67
2023/04/25 00:37:04;;;;;;;4.30;1.05;;;;;;;7.72;100.00;100008.59;5067459;28;20027;-67
2023/04/25 00:39:30;;;;;;;1.80;1.10;;;;;;;7.78;100.00;100010.63;5064850;28;20039;-67
2023/04/25 00:41:56;;;;;;;3.10;1.70;;;;;;;7.80;100.00;100016.50;5070072;28;20423;-67
2023/04/25 00:44:22;;;;;;;3.08;1.55;;;;;;;7.85;100.00;100016.91;5071682;28;20054;-67
2023/04/25 00:46:49;;;;;;;2.20;1.40;;;;;;;7.91;100.00;100016.38;5068543;28;20032;-67
2023/04/25 00:49:16;;;;;;;1.08;0.60;;;;;;;7.75;100.00;100013.50;5073598;28;20033;-67
2023/04/25 00:51:43;;;;;;;1.73;0.50;;;;;;;7.83;100.00;100017.06;5067469;28;20118;-67
2023/04/25 00:54:10;;;;;;;4.13;0.70;;;;;;;8.01;100.00;100013.75;5059939;28;20060;-67
2023/04/25 00:56:35;;;;;;;1.38;0.70;;;;;;;8.13;100.00;100021.22;5064306;28;20028;-67
2023/04/25 00:59:01;;;;;;;3.80;0.75;;;;;;;8.19;100.00;100019.84;5072534;28;20032;-67
2023/04/25 01:01:27;;;;;;;2.42;0.90;;;;;;;8.25;100.00;100025.31;5079654;28;20517;-67
2023/04/25 01:03:54;;;;;;;3.03;0.40;;;;;;;8.19;100.00;100015.47;5067906;28;20483;-67
2023/04/25 01:06:19;;;;;;;4.45;0.50;;;;;;;8.17;100.00;100017.41;5048327;28;20429;-67
2023/04/25 01:08:45;;;;;;;0.52;0.20;;;;;;;8.18;100.00;100006.06;5064811;28;20033;-67
2023/04/25 01:11:10;;;;;;;1.58;0.47;;;;;;;8.24;100.00;100010.69;5069462;28;20516;-67
2023/04/25 01:13:36;;;;;;;6.10;0.40;;;;;;;8.26;100.00;100001.00;5068029;28;20258;-67
2023/04/25 01:16:02;;;;;;;2.60;0.25;;;;;;;8.31;100.00;100006.56;5063152;28;20063;-67
2023/04/25 01:18:28;;;;;;;0.80;0.20;;;;;;;8.31;100.00;100005.75;5066602;28;20032;-67
2023/04/25 01:20:55;;;;;;;1.70;0.20;;;;;;;8.30;100.00;100010.13;5065486;28;20024;-67
2023/04/25 01:23:21;;;;;;;2.25;0.30;;;;;;;8.34;100.00;100009.88;5064017;28;20566;-67
2023/04/25 01:25:47;;;;;;;3.75;0.28;;;;;;;8.36;100.00;100000.19;5065272;28;20455;-67
2023/04/25 01:28:13;;;;;;;1.65;0.20;;;;;;;8.40;100.00;100004.13;5063888;28;20032;-67
2023/04/25 01:30:40;;;;;;;1.00;0.20;;;;;;;8.41;100.00;100000.56;5060091;28;20075;-67
2023/04/25 01:33:08;;;;;;;1.27;0.32;;;;;;;8.43;100.00;100003.84;5074124;28;20033;-67
2023/04/25 01:35:33;;;;;;;1.90;0.65;;;;;;;8.27;100.00;100004.41;5069299;28;20028;-67
2023/04/25 01:37:59;;;;;;;1.88;0.60;;;;;;;8.22;100.00;99997.03;5066521;28;20047;-67
2023/04/25 01:40:25;;;;;;;1.27;0.50;;;;;;;8.19;100.00;100012.88;5071394;28;20374;-66
2023/04/25 01:42:51;;;;;;;1.55;0.60;;;;;;;8.14;100.00;100004.69;5065865;28;20519;-67
2023/04/25 01:45:17;;;;;;;1.75;0.75;;;;;;;8.04;100.00;100003.91;5067784;28;20040;-67
2023/04/25 01:47:46;;;;;;;2.70;0.50;;;;;;;7.93;100.00;100001.47;5069287;28;20938;-67
2023/04/25 01:50:12;;;;;;;0.80;0.30;;;;;;;7.81;100.00;99998.22;5066404;28;20036;-68
2023/04/25 01:52:37;;;;;;;2.42;0.50;;;;;;;7.85;100.00;100003.94;5064825;28;20028;-67
2023/04/25 01:55:05;;;;;;;2.75;0.60;;;;;;;7.86;100.00;100000.41;5059600;28;20146;-69
2023/04/25 01:57:31;;;;;;;3.97;0.60;;;;;;;7.80;100.00;99995.75;5059432;28;20384;-69
2023/04/25 02:00:01;;;;;;;3.85;0.65;;;;;;;7.74;100.00;99996.31;5067776;28;20036;-68
2023/04/25 02:02:26;;;;;;;1.27;0.55;;;;;;;7.73;100.00;99999.84;5065372;28;20066;-68
2023/04/25 02:04:52;;;;;;;1.88;0.63;;;;;;;7.79;100.00;100001.91;5082974;28;20067;-68
2023/04/25 02:07:18;;;;;;;3.28;0.57;;;;;;;7.81;100.00;100003.41;5074173;28;20111;-68
2023/04/25 02:09:43;;;;;;;1.17;0.55;;;;;;;7.75;100.00;99997.94;5044627;28;20432;-68
2023/04/25 02:12:10;;;;;;;1.77;0.95;;;;;;;7.63;100.00;99995.47;5066551;28;20024;-68
2023/04/25 02:14:35;;;;;;;2.38;0.80;;;;;;;7.60;100.00;100000.13;5071883;28;20035;-68
2023/04/25 02:17:01;;;;;;;2.28;1.17;;;;;;;7.58;100.00;100007.22;5075970;28;20488;-68
2023/04/25 02:19:26;;;;;;;1.60;0.52;;;;;;;7.69;100.00;99998.47;5068573;28;20397;-68
2023/04/25 02:21:51;;;;;;;0.70;0.20;;;;;;;7.78;100.00;99997.66;5076748;28;20113;-68
2023/04/25 02:24:17;;;;;;;0.60;0.20;;;;;;;7.89;100.00;99992.34;5048777;28;20044;-68
2023/04/25 02:26:43;;;;;;;0.85;0.20;;;;;;;7.92;100.00;100000.66;5067150;28;20028;-68
2023/04/25 02:29:09;;;;;;;2.63;0.10;;;;;;;7.97;100.00;99992.47;5065088;28;20032;-68
2023/04/25 02:31:34;;;;;;;1.42;0.20;;;;;;;8.01;100.00;99993.00;5070016;28;20494;-68
2023/04/25 02:34:00;;;;;;;0.73;0.17;;;;;;;8.04;100.00;99993.50;5061393;28;20126;-68
2023/04/25 02:36:26;;;;;;;0.40;0.20;;;;;;;8.10;100.00;100003.34;5070354;28;20361;-68
2023/04/25 02:38:51;;;;;;;1.33;0.10;;;;;;;8.12;100.00;99995.41;5058324;28;20498;-68
2023/04/25 02:41:17;;;;;;;1.02;0.20;;;;;;;8.22;100.00;100007.41;5072004;28;20040;-69
2023/04/25 02:43:43;;;;;;;4.03;0.40;;;;;;;8.31;100.00;100005.75;5064436;28;20093;-69
2023/04/25 02:46:08;;;;;;;1.52;0.30;;;;;;;8.37;100.00;100004.41;5058659;28;20032;-68
2023/04/25 02:48:34;;;;;;;1.05;0.15;;;;;;;8.45;100.00;100001.94;5061317;28;20029;-68
2023/04/25 02:50:59;;;;;;;2.50;0.10;;;;;;;8.48;100.00;99996.47;5067327;28;20023;-68
2023/04/25 02:53:24;;;;;;;2.22;0.20;;;;;;;8.52;100.00;99990.00;5054708;28;20166;-68
2023/04/25 02:55:52;;;;;;;0.40;0.10;;;;;;;8.53;100.00;99978.66;5079999;28;20024;-69
2023/04/25 02:58:17;;;;;;;0.82;0.20;;;;;;;8.56;100.00;99979.19;5059153;28;20097;-68
2023/04/25 03:00:43;;;;;;;3.05;0.30;;;;;;;8.56;100.00;99973.97;5075938;28;20473;-68
2023/04/25 03:03:08;;;;;;;0.70;0.40;;;;;;;8.59;100.00;99984.09;5071475;28;20054;-69
2023/04/25 03:05:33;;;;;;;0.90;0.30;;;;;;;8.57;100.00;99986.00;5071891;28;20432;-68
2023/04/25 03:07:59;;;;;;;3.25;0.30;;;;;;;8.63;100.00;99984.63;5060979;28;20492;-68
2023/04/25 03:10:24;;;;;;;2.85;0.25;;;;;;;8.67;100.00;99991.16;5060712;28;20024;-68
2023/04/25 03:12:50;;;;;;;1.40;0.30;;;;;;;8.70;100.00;99983.09;5045369;28;20479;-68
2023/04/25 03:15:16;;;;;;;0.80;0.20;;;;;;;8.76;100.00;99990.31;5049560;28;20484;-68
2023/04/25 03:17:42;;;;;;;1.52;0.30;;;;;;;8.81;100.00;99988.09;5062681;28;20035;-69
2023/04/25 03:20:08;;;;;;;1.58;0.20;;;;;;;8.81;100.00;99980.31;5068225;28;20033;-68
2023/04/25 03:22:33;;;;;;;0.95;0.45;;;;;;;8.80;100.00;99981.25;5061960;28;20033;-68
2023/04/25 03:24:59;;;;;;;1.13;0.73;;;;;;;8.79;100.00;99977.03;5059760;28;20032;-68
2023/04/25 03:27:24;;;;;;;1.35;0.38;;;;;;;8.76;100.00;99979.91;5062438;28;20032;-68
2023/04/25 03:29:50;;;;;;;2.13;0.35;;;;;;;8.72;100.00;99978.56;5063563;28;20078;-69
2023/04/25 03:32:15;;;;;;;0.70;0.30;;;;;;;8.70;100.00;99985.69;5065314;28;20033;-68
2023/04/25 03:34:41;;;;;;;1.92;0.22;;;;;;;8.64;100.00;99981.88;5062113;28;20148;-69
2023/04/25 03:37:06;;;;;;;0.75;0.30;;;;;;;8.64;100.00;99986.25;5067434;28;20048;-68
2023/04/25 03:39:32;;;;;;;1.02;0.28;;;;;;;8.65;100.00;99986.09;5065458;28;20104;-68
2023/04/25 03:41:57;;;;;;;3.65;0.32;;;;;;;8.65;100.00;99980.91;5076950;28;20089;-68
2023/04/25 03:44:24;;;;;;;3.35;0.30;;;;;;;8.68;100.00;99989.38;5067746;28;20071;-68
2023/04/25 03:46:49;;;;;;;2.13;0.60;;;;;;;8.68;100.00;99991.97;5067350;28;20063;-68
2023/04/25 03:49:16;;;;;;;1.70;0.30;;;;;;;8.60;100.00;99984.91;5074317;28;20495;-68
2023/04/25 03:51:41;;;;;;;5.88;0.70;;;;;;;8.57;100.00;99985.19;5069106;28;20033;-68
2023/04/25 03:54:07;;;;;;;2.95;0.60;;;;;;;8.57;100.00;99980.00;5061124;28;20043;-69
2023/04/25 03:56:32;;;;;;;0.93;0.30;;;;;;;8.52;100.00;99980.41;5066567;28;20771;-68
2023/04/25 03:58:58;;;;;;;4.95;0.70;;;;;;;8.48;100.00;99983.47;5064013;28;20159;-68
2023/04/25 04:01:23;;;;;;;3.55;0.60;;;;;;;8.48;100.00;99975.69;5071123;28;20051;-67
2023/04/25 04:03:49;;;;;;;3.35;0.52;;;;;;;8.51;100.00;99981.38;5077047;28;20036;-68
2023/04/25 04:06:14;;;;;;;2.38;0.65;;;;;;;8.50;100.00;99974.59;5072802;28;20123;-68
2023/04/25 04:08:40;;;;;;;1.73;0.40;;;;;;;8.50;100.00;99968.56;5061918;28;20036;-68
2023/04/25 04:11:06;;;;;;;2.70;0.63;;;;;;;8.44;100.00;99971.75;5067565;28;20027;-68
2023/04/25 04:13:31;;;;;;;3.00;0.57;;;;;;;8.41;100.00;99972.84;5072405;28;20044;-68
2023/04/25 04:15:57;;;;;;;2.70;0.45;;;;;;;8.40;100.00;99972.97;5045016;28;20047;-68
2023/04/25 04:18:23;;;;;;;2.55;0.38;;;;;;;8.38;100.00;99965.34;5068868;28;20033;-68
2023/04/25 04:20:48;;;;;;;1.55;0.40;;;;;;;8.43;100.00;99959.72;5068757;28;20486;-68
2023/04/25 04:23:14;;;;;;;1.35;0.40;;;;;;;8.46;100.00;99956.84;5066364;28;20087;-67
2023/04/25 04:25:40;;;;;;;1.42;0.30;;;;;;;8.46;100.00;99956.84;5068103;28;20040;-68
2023/04/25 04:28:06;;;;;;;5.07;0.30;;;;;;;8.52;100.00;99957.06;5070661;28;20385;-68
2023/04/25 04:30:35;;;;;;;2.45;0.40;;;;;;;8.57;100.00;99960.03;5063785;28;20037;-68
2023/04/25 04:33:01;;;;;;;1.90;0.30;;;;;;;8.61;100.00;99963.97;5073662;28;20123;-68
2023/04/25 04:35:27;;;;;;;0.75;0.30;;;;;;;8.67;100.00;99964.38;5069844;28;20039;-67
2023/04/25 04:37:53;;;;;;;1.83;0.35;;;;;;;8.69;100.00;99963.28;5064898;28;20526;-68
2023/04/25 04:40:19;;;;;;;2.55;0.30;;;;;;;8.71;100.00;99958.75;5065393;28;20033;-68
2023/04/25 04:42:48;;;;;;;2.42;0.30;;;;;;;8.70;100.00;99958.91;5069227;28;20029;-68
2023/04/25 04:45:14;;;;;;;0.85;0.40;;;;;;;8.65;100.00;99960.16;5059790;28;20032;-68
2023/04/25 04:47:40;;;;;;;1.80;0.30;;;;;;;8.61;100.00;99965.75;5056709;28;20032;-68
2023/04/25 04:50:09;;;;;;;0.77;0.20;;;;;;;8.57;100.00;99960.03;5074602;28;20072;-68
2023/04/25 04:52:36;;;;;;;2.83;0.40;;;;;;;8.59;100.00;99958.13;5064165;28;20067;-69
2023/04/25 04:55:03;;;;;;;4.03;0.80;;;;;;;8.61;100.00;99951.00;5067707;28;20044;-68
2023/04/25 04:57:29;;;;;;;3.50;0.50;;;;;;;8.64;100.00;99960.28;5070556;28;20143;-68
2023/04/25 04:59:55;;;;;;;2.72;0.60;;;;;;;8.66;100.00;99963.56;5069950;28;20379;-68
2023/04/25 05:02:20;;;;;;;2.33;0.50;;;;;;;8.60;100.00;99948.53;5065110;28;20041;-68
2023/04/25 05:04:46;;;;;;;1.00;0.40;;;;;;;8.66;100.00;99947.97;5071976;28;20078;-68
2023/04/25 05:07:12;;;;;;;1.00;0.30;;;;;;;8.75;100.00;99939.31;5068134;28;20043;-68
2023/04/25 05:09:38;;;;;;;2.92;0.35;;;;;;;8.84;100.00;99935.84;5066496;28;20028;-68
2023/04/25 05:12:03;;;;;;;0.70;0.30;;;;;;;8.86;100.00;99933.94;5065555;28;20124;-68
2023/04/25 05:14:29;;;;;;;0.85;0.30;;;;;;;8.88;100.00;99924.22;5064596;28;20029;-68
2023/04/25 05:16:55;;;;;;;2.92;0.50;;;;;;;8.95;100.00;99932.25;5067404;28;20032;-69
2023/04/25 05:19:20;;;;;;;1.38;0.20;;;;;;;9.02;100.00;99938.44;5064792;28;20081;-68
2023/04/25 05:21:45;;;;;;;1.52;0.30;;;;;;;9.05;100.00;99932.16;5062994;28;20060;-68
2023/04/25 05:24:11;;;;;;;5.90;0.50;;;;;;;9.13;100.00;99940.03;5059722;28;20093;-68
2023/04/25 05:26:37;;;;;;;2.25;0.57;;;;;;;9.15;100.00;99932.91;5067719;28;20028;-68
2023/04/25 05:29:03;;;;;;;1.17;0.40;;;;;;;9.23;100.00;99930.38;5059208;28;20035;-69
2023/04/25 05:31:28;;;;;;;0.82;0.40;;;;;;;9.35;100.00;99924.00;5057964;28;20028;-69
2023/04/25 05:33:53;;;;;;;1.38;0.30;;;;;;;9.43;100.00;99929.25;5038316;28;20105;-68
2023/04/25 05:36:19;;;;;;;4.18;0.50;;;;;;;9.54;100.00;99936.81;5060511;28;20070;-69
2023/04/25 05:38:45;;;;;;;2.15;0.28;;;;;;;9.47;100.00;99938.38;5063426;28;20041;-68
2023/04/25 05:41:10;;;;;;;1.15;0.20;;;;;;;9.44;100.00;99930.91;5072213;28;20028;-69
2023/04/25 05:43:36;;;;;;;3.75;0.20;;;;;;;9.41;100.00;99931.19;5064105;28;20064;-69
2023/04/25 05:46:01;;;;;;;1.13;0.20;;;;;;;9.41;100.00;99933.78;5057812;28;20036;-69
2023/04/25 05:48:27;;;;;;;1.88;0.20;;;;;;;9.42;100.00;99935.44;5059442;28;20043;-69
2023/04/25 05:50:52;;;;;;;1.73;0.15;;;;;;;9.46;100.00;99939.34;5058700;28;20091;-68
2023/04/25 05:53:19;;;;;;;1.15;0.22;;;;;;;9.60;100.00;99933.59;5052813;28;20373;-68
2023/04/25 05:55:44;;;;;;;0.88;0.20;;;;;;;9.71;100.00;99936.94;5054281;28;20039;-68
2023/04/25 05:58:10;;;;;;;2.53;0.20;;;;;;;9.91;100.00;99938.41;5053024;28;20025;-68
2023/04/25 06:00:35;;;;;;;0.60;0.20;;;;;;;10.03;100.00;99937.16;5057095;28;20025;-68
2023/04/25 06:03:01;;;;;;;3.90;0.15;;;;;;;10.16;100.00;99934.94;5054399;28;20041;-68
2023/04/25 06:05:27;;;;;;;2.60;0.20;;;;;;;10.34;100.00;99934.09;5056487;28;20468;-68
2023/04/25 06:07:52;;;;;;;1.98;0.10;;;;;;;10.39;100.00;99939.66;5060448;28;20068;-68
2023/04/25 06:10:18;;;;;;;2.05;0.20;;;;;;;10.26;100.00;99940.06;5062404;28;20028;-68
2023/04/25 06:12:43;;;;;;;0.55;0.20;;;;;;;10.22;100.00;99936.97;5061248;28;20040;-68
2023/04/25 06:15:10;;;;;;;0.65;0.10;;;;;;;10.28;100.00;99933.75;5059355;28;20037;-68
2023/04/25 06:17:35;;;;;;;0.95;0.20;;;;;;;10.36;100.00;99939.97;5063536;28;20035;-68
2023/04/25 06:20:01;;;;;;;1.33;0.20;;;;;;;10.37;100.00;99941.59;5053352;28;20025;-68
2023/04/25 06:22:27;;;;;;;1.42;0.30;;;;;;;10.38;100.00;99938.03;5054720;28;20602;-69
2023/04/25 06:24:52;;;;;;;0.98;0.20;;;;;;;10.42;100.00;99949.72;5058993;28;20028;-68
2023/04/25 06:27:17;;;;;;;2.92;0.52;;;;;;;10.51;100.00;99952.22;5057432;28;20055;-68
2023/04/25 06:29:43;;;;;;;1.83;0.10;;;;;;;10.56;100.00;99949.16;5032027;28;20054;-68
2023/04/25 06:32:08;;;;;;;4.38;0.20;;;;;;;10.57;100.00;99953.38;5056927;28;20404;-68
2023/04/25 06:34:34;;;;;;;3.80;0.20;;;;;;;10.64;100.00;99957.00;5062114;28;20072;-67
2023/04/25 06:36:59;;;;;;;0.88;0.20;;;;;;;10.68;100.00;99952.28;5061748;28;20036;-68
2023/04/25 06:39:25;;;;;;;7.70;2.08;;;;;;;10.72;100.00;99962.25;5043133;28;20431;-68
2023/04/25 06:41:50;;;;;;;6.88;1.70;;;;;;;10.79;100.00;99962.44;5067958;28;20108;-68
2023/04/25 06:44:16;;;;;;;3.90;0.52;;;;;;;10.84;100.00;99958.38;5067907;28;20036;-68
2023/04/25 06:46:42;;;;;;;2.63;0.25;;;;;;;10.83;100.00;99969.78;5066690;28;20029;-67
2023/04/25 06:49:07;;;;;;;3.45;0.20;;;;;;;10.90;100.00;99960.34;5066671;28;20039;-68
2023/04/25 06:51:33;;;;;;;3.08;0.13;;;;;;;10.92;100.00;99962.78;5067650;28;20036;-69
2023/04/25 06:53:59;;;;;;;1.05;0.38;;;;;;;10.95;100.00;99965.06;5064273;28;20041;-70
2023/04/25 06:56:24;;;;;;;0.70;0.30;;;;;;;10.94;100.00;99959.03;5068398;28;20033;-69
2023/04/25 06:58:50;;;;;;;1.52;0.20;;;;;;;10.97;100.00;99947.47;5065753;28;20040;-68
2023/04/25 07:01:15;;;;;;;1.05;0.28;;;;;;;11.05;100.00;99951.91;5065054;28;20111;-68
2023/04/25 07:03:40;;;;;;;1.63;0.30;;;;;;;11.11;100.00;99959.09;5069291;28;20040;-69
2023/04/25 07:06:06;;;;;;;2.67;0.60;;;;;;;11.22;100.00;99962.22;5067199;28;20051;-68
2023/04/25 07:08:32;;;;;;;2.22;0.40;;;;;;;11.34;100.00;99961.91;5064150;28;20035;-68
2023/04/25 07:10:57;;;;;;;0.80;0.25;;;;;;;11.41;100.00;99961.06;5067285;28;20071;-70
2023/04/25 07:13:22;;;;;;;4.85;0.20;;;;;;;11.42;100.00;99965.31;5075720;28;20507;-70
2023/04/25 07:15:48;;;;;;;4.53;0.38;;;;;;;11.38;100.00;99969.22;5066657;28;20419;-70
2023/04/25 07:18:14;;;;;;;5.40;0.60;;;;;;;11.39;100.00;99967.44;5075030;28;20070;-70
2023/04/25 07:20:39;;;;;;;3.83;0.17;;;;;;;11.38;100.00;99968.41;5072032;28;20037;-69
2023/04/25 07:23:05;;;;;;;2.90;0.30;;;;;;;11.37;100.00;99967.59;5066610;28;20545;-70
2023/04/25 07:25:31;;;;;;;2.53;0.20;;;;;;;11.39;100.00;99973.47;5073153;28;20638;-70
2023/04/25 07:27:56;;;;;;;3.83;0.50;;;;;;;11.37;100.00;99983.22;5069483;28;20082;-70
2023/04/25 07:30:22;;;;;;;5.07;0.50;;;;;;;11.35;100.00;99979.97;5069794;28;20119;-70
2023/04/25 07:32:48;;;;;;;2.65;0.38;;;;;;;11.42;100.00;99977.53;5064297;28;20072;-70
2023/04/25 07:35:14;;;;;;;3.20;0.50;;;;;;;11.42;100.00;99985.38;5070736;28;20059;-70
2023/04/25 07:37:39;;;;;;;3.90;0.40;;;;;;;11.45;100.00;99985.84;5071840;28;20047;-70
2023/04/25 07:40:05;;;;;;;2.75;0.38;;;;;;;11.49;100.00;99995.00;5075241;28;20035;-69
2023/04/25 07:42:31;;;;;;;1.38;0.20;;;;;;;11.60;100.00;99999.91;5074217;28;20459;-69
2023/04/25 07:44:57;;;;;;;3.70;0.50;;;;;;;11.75;100.00;100012.31;5055221;28;20044;-70
2023/04/25 07:47:22;;;;;;;1.42;0.40;;;;;;;11.84;100.00;100012.16;5062940;28;20040;-70
2023/04/25 07:49:48;;;;;;;3.97;0.38;;;;;;;11.84;100.00;100008.72;5064146;28;20025;-71
2023/04/25 07:52:14;;;;;;;3.17;0.50;;;;;;;11.84;100.00;100016.56;5059064;28;20037;-71
2023/04/25 07:54:39;;;;;;;3.13;0.20;;;;;;;11.88;100.00;100007.41;5073158;28;20117;-71
2023/04/25 07:57:06;;;;;;;1.00;0.20;;;;;;;11.92;100.00;100012.16;5067447;28;20028;-71
2023/04/25 07:59:31;;;;;;;0.50;0.30;;;;;;;11.89;100.00;100015.09;5065927;28;20387;-71
2023/04/25 08:01:57;;;;;;;0.63;0.20;;;;;;;11.84;100.00;100017.38;5079639;28;20040;-71
2023/04/25 08:04:23;;;;;;;1.88;0.30;;;;;;;11.82;100.00;100019.34;5064882;28;20036;-71
2023/04/25 08:06:48;;;;;;;3.38;0.30;;;;;;;11.76;100.00;100017.38;5075769;28;21263;-72
2023/04/25 08:09:15;;;;;;;1.85;0.28;;;;;;;11.72;100.00;100021.28;5075389;28;20041;-72
2023/04/25 08:11:41;;;;;;;1.35;0.50;;;;;;;11.63;100.00;100030.91;5068927;28;20024;-72
2023/04/25 08:14:07;;;;;;;1.17;0.20;;;;;;;11.64;100.00;100037.75;5078893;28;20028;-71
2023/04/25 08:16:32;;;;;;;0.73;0.20;;;;;;;11.68;100.00;100029.59;5074876;28;20430;-72
2023/04/25 08:18:59;;;;;;;2.25;0.20;;;;;;;11.69;100.00;100032.03;5068266;28;20036;-72
2023/04/25 08:21:26;;;;;;;0.90;0.20;;;;;;;11.72;100.00;100042.16;5073434;28;20035;-72
2023/04/25 08:23:52;;;;;;;2.83;0.22;;;;;;;11.67;100.00;100048.84;5068729;28;20105;-72
2023/04/25 08:26:17;;;;;;;1.45;0.20;;;;;;;11.61;100.00;100051.13;5069484;28;20078;-71
2023/04/25 08:28:43;;;;;;;3.25;0.22;;;;;;;11.62;100.00;100052.75;5067344;28;20532;-70
2023/04/25 08:31:08;;;;;;;2.72;0.20;;;;;;;11.54;100.00;100041.47;5077343;28;20051;-71
2023/04/25 08:33:33;;;;;;;2.08;0.25;;;;;;;11.52;100.00;100054.69;5061483;28;20503;-71
2023/04/25 08:35:59;;;;;;;4.45;0.30;;;;;;;11.57;100.00;100051.59;5067355;28;20069;-71
2023/04/25 08:38:25;;;;;;;1.45;0.30;;;;;;;11.56;100.00;100050.78;5069979;28;20072;-71
2023/04/25 08:40:51;;;;;;;1.02;0.30;;;;;;;11.59;100.00;100049.63;5064869;28;20044;-71
2023/04/25 08:43:18;;;;;;;2.15;0.30;;;;;;;11.57;100.00;100062.84;5067988;28;20157;-71
2023/04/25 08:45:45;;;;;;;1.75;0.30;;;;;;;11.63;100.00;100056.97;5077704;28;20479;-71
2023/04/25 08:48:13;;;;;;;1.48;0.30;;;;;;;11.62;100.00;100067.59;5069925;28;20079;-73
2023/04/25 08:50:43;;;;;;;1.20;0.30;;;;;;;11.71;100.00;100071.84;5063218;28;20017;-71
2023/04/25 08:53:13;;;;;;;0.98;0.32;;;;;;;11.78;100.00;100077.28;5065092;28;20067;-71
2023/04/25 08:55:41;;;;;;;2.20;0.35;;;;;;;11.89;100.00;100074.31;5063485;28;20057;-71
2023/04/25 08:58:07;;;;;;;2.10;0.30;;;;;;;12.04;100.00;100083.13;5066776;28;20051;-72
2023/04/25 09:00:32;;;;;;;1.80;0.22;;;;;;;12.18;100.00;100085.09;5065874;28;20476;-71
2023/04/25 09:02:59;;;;;;;0.60;0.22;;;;;;;12.30;100.00;100083.75;5068445;28;20032;-71
2023/04/25 09:05:24;;;;;;;3.60;0.55;;;;;;;12.34;100.00;100083.44;5064932;28;20134;-71
2023/04/25 09:07:50;;;;;;;1.02;0.32;;;;;;;12.41;100.00;100087.03;5067316;28;20032;-71
2023/04/25 09:10:15;;;;;;;2.05;0.30;;;;;;;12.48;100.00;100088.00;5068815;28;20024;-71
2023/04/25 09:12:42;;;;;;;0.88;0.30;;;;;;;12.45;100.00;100088.34;5072752;28;20028;-71
2023/04/25 09:15:12;;;;;;;0.85;0.20;;;;;;;12.46;100.00;100080.31;5059919;28;20045;-70
2023/04/25 09:17:41;;;;;;;2.35;0.20;;;;;;;12.51;100.00;100079.84;5068570;28;20037;-71
2023/04/25 09:20:07;;;;;;;2.03;0.20;;;;;;;12.50;100.00;100084.25;5039440;28;20039;-71
2023/04/25 09:22:34;;;;;;;0.52;0.25;;;;;;;12.57;100.00;100087.81;5064405;28;20039;-71
2023/04/25 09:25:04;;;;;;;37.40;1.55;;;;;;;12.67;100.00;100087.66;5052257;28;20027;-70
2023/04/25 09:27:30;;;;;;;15.45;1.02;;;;;;;12.75;100.00;100092.88;5068574;28;20032;-71
2023/04/25 09:30:00;;;;;;;3.78;0.35;;;;;;;12.86;100.00;100097.72;5069319;28;20349;-71
2023/04/25 09:32:26;;;;;;;6.65;0.30;;;;;;;12.94;100.00;100095.06;5064958;28;20127;-71
2023/04/25 09:34:53;;;;;;;1.48;0.30;;;;;;;12.94;100.00;100097.69;5051642;28;20115;-71
2023/04/25 09:37:22;;;;;;;2.38;0.40;;;;;;;13.00;100.00;100104.03;5070443;28;20032;-71
2023/04/25 09:39:50;;;;;;;0.75;0.30;;;;;;;12.94;100.00;100097.69;5066655;28;20052;-71
2023/04/25 09:42:17;;;;;;;1.42;0.55;;;;;;;12.87;100.00;100099.34;5069903;28;20027;-71
2023/04/25 09:44:44;;;;;;;0.60;0.28;;;;;;;12.91;100.00;100100.63;5053058;28;20059;-71
2023/04/25 09:47:12;;;;;;;1.40;0.30;;;;;;;12.92;100.00;100096.22;5063712;28;20499;-71
2023/04/25 09:49:43;;;;;;;1.38;0.20;;;;;;;12.93;100.00;100087.41;5073410;28;20043;-71
2023/04/25 09:52:13;;;;;;;2.50;0.30;;;;;;;12.95;100.00;100088.84;5070111;28;20597;-71
2023/04/25 09:54:38;;;;;;;1.02;0.30;;;;;;;13.05;100.00;100085.22;5049128;28;20036;-73
2023/04/25 09:57:11;;;;;;;1.95;0.38;;;;;;;13.09;100.00;100082.09;5069016;28;20361;-71
2023/04/25 09:59:39;;;;;;;2.15;0.30;;;;;;;13.14;100.00;100077.19;5071566;28;20032;-71
2023/04/25 10:02:07;;;;;;;1.30;0.30;;;;;;;13.19;100.00;100079.31;5067150;28;20039;-71
2023/04/25 10:04:34;;;;;;;2.08;0.40;;;;;;;13.16;100.00;100079.66;5063559;28;20029;-71
2023/04/25 10:07:01;;;;;;;1.00;0.30;;;;;;;13.13;100.00;100083.41;5068343;28;20033;-71
2023/04/25 10:09:32;;;;;;;1.40;0.20;;;;;;;13.10;100.00;100085.53;5067600;28;20032;-66
2023/04/25 10:11:58;;;;;;;1.98;0.30;;;;;;;12.96;100.00;100082.66;5068417;28;20051;-66
2023/04/25 10:14:25;;;;;;;0.85;0.25;;;;;;;12.96;100.00;100087.06;5075854;28;20059;-67
2023/04/25 10:16:53;;;;;;;0.77;0.30;;;;;;;12.93;100.00;100074.31;5068523;28;20028;-66
2023/04/25 10:19:20;;;;;;;1.35;0.30;;;;;;;12.92;100.00;100078.72;5071601;28;20032;-66
2023/04/25 10:21:58;;;;;;;1.10;0.30;;;;;;;12.93;100.00;100076.94;5075400;28;20031;-66
2023/04/25 10:24:25;;;;;;;1.60;0.22;;;;;;;13.00;100.00;100085.75;5077965;28;20072;-66
2023/04/25 10:26:51;;;;;;;1.00;0.20;;;;;;;13.05;100.00;100075.59;5073181;28;20024;-66
2023/04/25 10:29:24;;;;;;;0.30;0.17;;;;;;;13.04;100.00;100068.72;5069396;28;20032;-65
2023/04/25 10:31:50;;;;;;;1.00;0.25;;;;;;;13.11;100.00;100063.63;5069852;28;20115;-66
2023/04/25 10:34:17;;;;;;;1.23;0.20;;;;;;;13.17;100.00;100069.03;5069574;28;20115;-66
2023/04/25 10:36:42;;;;;;;0.43;0.20;;;;;;;13.20;100.00;100071.31;5083831;28;20442;-66
2023/04/25 10:39:11;;;;;;;1.00;0.10;;;;;;;13.07;100.00;100059.72;5078054;28;20044;-66
2023/04/25 10:41:48;;;;;;;0.65;0.10;;;;;;;12.93;100.00;100062.06;5074383;28;20073;-65
2023/04/25 10:44:13;;;;;;;0.50;0.10;;;;;;;12.84;100.00;100057.84;5072680;28;20062;-65
2023/04/25 10:46:39;;;;;;;0.30;0.10;;;;;;;12.79;100.00;100065.38;5080177;28;20033;-66
2023/04/25 10:49:05;;;;;;;0.28;0.10;;;;;;;12.84;100.00;100062.25;5081173;28;20036;-66
2023/04/25 10:51:35;;;;;;;0.70;0.13;;;;;;;12.84;100.00;100063.06;5079763;28;21206;-66
2023/04/25 10:54:03;;;;;;;1.50;0.10;;;;;;;12.91;100.00;100063.22;5074323;28;20082;-66
2023/04/25 10:56:31;;;;;;;2.25;0.10;;;;;;;12.93;100.00;100063.84;5065302;28;20073;-67
2023/04/25 10:59:05;;;;;;;0.88;0.20;;;;;;;12.95;100.00;100067.13;5068028;28;20040;-65
2023/04/25 11:01:36;;;;;;;0.77;0.10;;;;;;;12.95;100.00;100059.28;5061760;28;20032;-66
2023/04/25 11:04:03;;;;;;;0.60;0.17;;;;;;;12.98;100.00;100055.50;5067311;28;20385;-66
2023/04/25 11:06:54;;;;;;;0.70;0.20;;;;;;;12.92;100.00;100052.59;5058088;28;20044;-65
2023/04/25 11:09:23;;;;;;;0.40;0.10;;;;;;;12.92;100.00;100042.13;5064121;28;20123;-66
2023/04/25 11:11:56;;;;;;;1.05;0.20;;;;;;;12.88;100.00;100035.59;5066136;28;20037;-69
2023/04/25 11:14:22;;;;;;;2.10;0.10;;;;;;;12.90;100.00;100035.44;5057913;28;20117;-68
2023/04/25 11:16:53;;;;;;;0.63;0.20;;;;;;;12.90;100.00;100035.44;5061068;28;20079;-68
2023/04/25 11:19:20;;;;;;;0.40;0.20;;;;;;;12.88;100.00;100042.63;5064544;28;20372;-68